createdAt,value
2023-02-07T00:00:26.062Z,-1.02
2023-02-07T00:03:12.979Z,-1.04
2023-02-07T00:06:10.894Z,-1.03
2023-02-07T00:09:02.206Z,-1.03
2023-02-07T00:11:49.016Z,-1.06
2023-02-07T00:14:35.796Z,-1.08
2023-02-07T00:17:22.604Z,-1.09
2023-02-07T00:20:10.042Z,-1.10
2023-02-07T00:22:56.909Z,-1.09
2023-02-07T00:25:45.977Z,-1.13
2023-02-07T00:28:32.937Z,-1.14
2023-02-07T00:31:21.164Z,-1.15
2023-02-07T00:34:08.449Z,-1.18
2023-02-07T00:36:55.285Z,-1.21
2023-02-07T00:39:42.387Z,-1.19
2023-02-07T00:42:29.186Z,-1.22
2023-02-07T00:45:16.081Z,-1.23
2023-02-07T00:48:02.940Z,-1.23
2023-02-07T00:50:49.720Z,-1.25
2023-02-07T00:53:37.130Z,-1.26
2023-02-07T00:56:26.361Z,-1.27
2023-02-07T00:59:13.178Z,-1.29
2023-02-07T01:01:59.987Z,-1.31
2023-02-07T01:04:46.835Z,-1.30
2023-02-07T01:07:34.274Z,-1.32
2023-02-07T01:10:21.132Z,-1.33
2023-02-07T01:13:08.327Z,-1.35
2023-02-07T01:15:55.111Z,-1.35
2023-02-07T01:18:41.905Z,-1.38
2023-02-07T01:21:28.785Z,-1.38
2023-02-07T01:24:16.323Z,-1.38
2023-02-07T01:27:03.988Z,-1.42
2023-02-07T01:29:51.266Z,-1.41
2023-02-07T01:32:38.128Z,-1.43
2023-02-07T01:35:24.918Z,-1.44
2023-02-07T01:38:11.684Z,-1.47
2023-02-07T01:40:58.475Z,-1.47
2023-02-07T01:43:58.894Z,-1.48
2023-02-07T01:46:45.644Z,-1.50
2023-02-07T01:49:34.403Z,-1.52
2023-02-07T01:52:28.335Z,-1.52
2023-02-07T01:55:28.565Z,-1.55
2023-02-07T01:58:15.860Z,-1.55
2023-02-07T02:01:11.040Z,-1.58
2023-02-07T02:03:57.960Z,-1.59
2023-02-07T02:06:45.819Z,-1.60
2023-02-07T02:09:32.643Z,-1.62
2023-02-07T02:12:25.562Z,-1.63
2023-02-07T02:15:31.147Z,-1.64
2023-02-07T02:18:39.047Z,-1.66
2023-02-07T02:21:45.657Z,-1.68
2023-02-07T02:24:58.766Z,-1.70
2023-02-07T02:28:11.573Z,-1.72
2023-02-07T02:31:18.337Z,-1.73
2023-02-07T02:34:34.208Z,-1.76
2023-02-07T02:37:29.487Z,-1.79
2023-02-07T02:40:42.172Z,-1.81
2023-02-07T02:43:44.979Z,-1.82
2023-02-07T02:46:34.942Z,-1.83
2023-02-07T02:49:22.093Z,-1.85
2023-02-07T02:52:08.853Z,-1.87
2023-02-07T02:54:55.654Z,-1.87
2023-02-07T02:57:49.383Z,-1.89
2023-02-07T03:00:57.116Z,-1.91
2023-02-07T03:03:55.911Z,-1.91
2023-02-07T03:07:13.298Z,-1.92
2023-02-07T03:10:18.826Z,-1.95
2023-02-07T03:13:16.422Z,-1.98
2023-02-07T03:16:15.514Z,-2.00
2023-02-07T03:19:43.068Z,-2.02
2023-02-07T03:22:30.132Z,-2.05
2023-02-07T03:25:17.874Z,-2.06
2023-02-07T03:28:05.501Z,-2.06
2023-02-07T03:30:55.636Z,-2.07
2023-02-07T03:33:43.874Z,-2.09
2023-02-07T03:36:35.353Z,-2.11
2023-02-07T03:39:22.192Z,-2.12
2023-02-07T03:42:16.975Z,-2.14
2023-02-07T03:45:05.939Z,-2.14
2023-02-07T03:47:52.784Z,-2.17
2023-02-07T03:50:39.571Z,-2.19
2023-02-07T03:53:27.098Z,-2.19
2023-02-07T03:56:13.873Z,-2.22
2023-02-07T03:59:00.674Z,-2.22
2023-02-07T04:01:47.440Z,-2.24
2023-02-07T04:04:34.414Z,-2.25
2023-02-07T04:07:21.204Z,-2.28
2023-02-07T04:10:09.368Z,-2.28
2023-02-07T04:12:56.144Z,-2.32
2023-02-07T04:15:43.399Z,-2.34
2023-02-07T04:18:30.182Z,-2.34
2023-02-07T04:21:16.954Z,-2.36
2023-02-07T04:24:03.887Z,-2.36
2023-02-07T04:26:50.681Z,-2.36
2023-02-07T04:29:37.542Z,-2.41
2023-02-07T04:32:24.377Z,-2.38
2023-02-07T04:35:11.238Z,-2.40
2023-02-07T04:37:58.026Z,-2.42
2023-02-07T04:40:44.804Z,-2.44
2023-02-07T04:43:33.437Z,-2.46
2023-02-07T04:46:20.265Z,-2.48
2023-02-07T04:49:07.076Z,-2.48
2023-02-07T04:51:53.907Z,-2.51
2023-02-07T04:54:40.714Z,-2.51
2023-02-07T04:57:27.516Z,-2.53
2023-02-07T05:00:15.045Z,-2.54
2023-02-07T05:03:01.873Z,-2.57
2023-02-07T05:05:48.854Z,-2.57
2023-02-07T05:08:36.925Z,-2.59
2023-02-07T05:11:23.828Z,-2.61
2023-02-07T05:14:10.706Z,-2.62
2023-02-07T05:16:57.581Z,-2.63
2023-02-07T05:19:45.005Z,-2.67
2023-02-07T05:22:31.866Z,-2.69
2023-02-07T05:25:19.069Z,-2.68
2023-02-07T05:28:05.875Z,-2.70
2023-02-07T05:30:55.222Z,-2.71
2023-02-07T05:33:42.011Z,-2.73
2023-02-07T05:36:28.786Z,-2.76
2023-02-07T05:39:15.604Z,-2.77
2023-02-07T05:42:02.487Z,-2.80
2023-02-07T05:44:49.273Z,-2.82
2023-02-07T05:47:36.086Z,-2.83
2023-02-07T05:50:23.295Z,-2.84
2023-02-07T05:53:10.195Z,-2.85
2023-02-07T05:55:57.018Z,-2.87
2023-02-07T05:58:43.780Z,-2.88
2023-02-07T06:01:30.562Z,-2.95
2023-02-07T06:04:17.399Z,-2.93
2023-02-07T06:07:05.042Z,-2.93
2023-02-07T06:09:52.038Z,-2.96
2023-02-07T06:12:39.371Z,-2.95
2023-02-07T06:15:26.141Z,-2.95
2023-02-07T06:18:12.917Z,-2.99
2023-02-07T06:20:59.729Z,-2.99
2023-02-07T06:23:49.639Z,-3.02
2023-02-07T06:26:36.562Z,-3.04
2023-02-07T06:29:23.399Z,-3.10
2023-02-07T06:32:10.181Z,-3.39
2023-02-07T06:34:56.973Z,-3.65
2023-02-07T06:37:43.782Z,-3.80
2023-02-07T06:40:30.553Z,-3.78
2023-02-07T06:43:17.351Z,-3.72
2023-02-07T06:46:04.272Z,-3.65
2023-02-07T06:48:51.363Z,-3.61
2023-02-07T06:51:38.133Z,-3.57
2023-02-07T06:54:24.912Z,-3.55
2023-02-07T06:57:11.819Z,-3.53
2023-02-07T06:59:58.579Z,-3.51
2023-02-07T07:02:45.361Z,-3.51
2023-02-07T07:05:32.721Z,-3.51
2023-02-07T07:08:19.688Z,-3.50
2023-02-07T07:11:06.465Z,-3.49
2023-02-07T07:13:53.227Z,-3.51
2023-02-07T07:16:42.795Z,-3.49
2023-02-07T07:19:29.562Z,-3.50
2023-02-07T07:22:16.621Z,-3.49
2023-02-07T07:25:04.384Z,-3.49
2023-02-07T07:27:52.539Z,-3.50
2023-02-07T07:30:39.423Z,-3.53
2023-02-07T07:33:26.193Z,-3.53
2023-02-07T07:36:13.159Z,-3.54
2023-02-07T07:38:59.922Z,-3.53
2023-02-07T07:41:46.898Z,-3.54
2023-02-07T07:44:33.744Z,-3.54
2023-02-07T07:47:20.514Z,-3.57
2023-02-07T07:50:07.860Z,-3.56
2023-02-07T07:52:54.640Z,-3.59
2023-02-07T07:55:42.088Z,-3.58
2023-02-07T07:58:31.886Z,-3.60
2023-02-07T08:01:18.750Z,-3.63
2023-02-07T08:04:05.738Z,-3.62
2023-02-07T08:06:52.908Z,-3.64
2023-02-07T08:09:39.668Z,-3.66
2023-02-07T08:12:26.507Z,-3.66
2023-02-07T08:15:14.087Z,-3.64
2023-02-07T08:18:01.022Z,-3.60
2023-02-07T08:20:49.823Z,-3.58
2023-02-07T08:23:37.207Z,-3.56
2023-02-07T08:26:23.993Z,-3.52
2023-02-07T08:29:11.119Z,-3.53
2023-02-07T08:31:57.914Z,-3.50
2023-02-07T08:34:45.411Z,-3.48
2023-02-07T08:37:32.208Z,-3.46
2023-02-07T08:40:19.494Z,-3.45
2023-02-07T08:43:12.132Z,-3.42
2023-02-07T08:46:00.508Z,-3.41
2023-02-07T08:48:47.584Z,-3.36
2023-02-07T08:51:34.343Z,-3.34
2023-02-07T08:54:21.158Z,-3.33
2023-02-07T08:57:07.937Z,-3.31
2023-02-07T08:59:54.814Z,-3.29
2023-02-07T09:02:43.374Z,-3.28
2023-02-07T09:05:33.741Z,-3.26
2023-02-07T09:08:20.521Z,-3.25
2023-02-07T09:11:10.248Z,-3.20
2023-02-07T09:13:57.067Z,-3.18
2023-02-07T09:16:43.861Z,-3.17
2023-02-07T09:19:30.793Z,-3.14
2023-02-07T09:22:17.541Z,-3.12
2023-02-07T09:25:04.538Z,-3.10
2023-02-07T09:27:51.608Z,-3.07
2023-02-07T09:30:41.627Z,-3.05
2023-02-07T09:33:29.767Z,-3.03
2023-02-07T09:36:21.908Z,-3.02
2023-02-07T09:39:08.676Z,-3.00
2023-02-07T09:42:17.887Z,-2.98
2023-02-07T09:45:10.138Z,-2.93
2023-02-07T09:48:03.294Z,-2.89
2023-02-07T09:50:55.426Z,-2.85
2023-02-07T09:53:42.082Z,-2.82
2023-02-07T09:56:30.155Z,-2.78
2023-02-07T09:59:43.396Z,-2.76
2023-02-07T10:02:53.226Z,-2.72
2023-02-07T10:06:12.851Z,-2.71
2023-02-07T10:09:06.524Z,-2.69
2023-02-07T10:12:17.368Z,-2.66
2023-02-07T10:15:16.877Z,-2.66
2023-02-07T10:18:30.242Z,-2.63
2023-02-07T10:21:33.584Z,-2.61
2023-02-07T10:24:29.443Z,-2.59
2023-02-07T10:27:24.329Z,-2.60
2023-02-07T10:30:40.788Z,-2.58
2023-02-07T10:33:36.235Z,-2.57
2023-02-07T10:36:25.023Z,-2.57
2023-02-07T10:39:39.277Z,-2.54
2023-02-07T10:42:27.481Z,-2.55
2023-02-07T10:45:14.764Z,-2.54
2023-02-07T10:48:01.526Z,-2.53
2023-02-07T10:50:48.362Z,-2.52
2023-02-07T10:53:54.711Z,-2.50
2023-02-07T10:56:50.364Z,-2.48
2023-02-07T10:59:45.765Z,-2.45
2023-02-07T11:02:37.348Z,-2.44
2023-02-07T11:05:24.123Z,-2.42
2023-02-07T11:08:26.095Z,-2.40
2023-02-07T11:11:33.227Z,-2.38
2023-02-07T11:14:26.585Z,-2.36
2023-02-07T11:17:21.193Z,-2.36
2023-02-07T11:20:24.327Z,-2.35
2023-02-07T11:23:14.229Z,-2.32
2023-02-07T11:26:02.649Z,-2.29
2023-02-07T11:28:54.550Z,-2.27
2023-02-07T11:31:42.235Z,-2.25
2023-02-07T11:34:54.471Z,-2.24
2023-02-07T11:37:48.593Z,-2.21
2023-02-07T11:40:45.564Z,-2.19
2023-02-07T11:43:34.374Z,-2.18
2023-02-07T11:46:22.233Z,-2.16
2023-02-07T11:49:27.472Z,-2.14
2023-02-07T11:52:14.358Z,-2.10
2023-02-07T11:55:05.879Z,-2.09
2023-02-07T11:57:57.528Z,-2.06
2023-02-07T12:00:44.862Z,-1.93
2023-02-07T12:03:42.088Z,-1.75
2023-02-07T12:06:38.569Z,-1.56
2023-02-07T12:09:47.039Z,-1.36
2023-02-07T12:12:44.206Z,-1.19
2023-02-07T12:15:34.080Z,-1.05
2023-02-07T12:18:34.528Z,-0.93
2023-02-07T12:21:44.672Z,-0.82
2023-02-07T12:24:37.256Z,-0.74
2023-02-07T12:27:29.343Z,-0.65
2023-02-07T12:30:33.278Z,-0.56
2023-02-07T12:33:27.344Z,-0.46
2023-02-07T12:36:36.808Z,-0.39
2023-02-07T12:39:48.486Z,-0.35
2023-02-07T12:42:45.496Z,-0.29
2023-02-07T12:45:51.597Z,-0.24
2023-02-07T12:49:03.386Z,-0.22
2023-02-07T12:51:50.079Z,-0.22
2023-02-07T12:54:48.682Z,-0.18
2023-02-07T12:57:43.829Z,-0.15
2023-02-07T13:00:56.841Z,-0.10
2023-02-07T13:04:18.536Z,-0.07
2023-02-07T13:07:45.979Z,-0.07
2023-02-07T13:10:57.388Z,-0.02
2023-02-07T13:14:06.580Z,0.03
2023-02-07T13:17:27.493Z,0.05
2023-02-07T13:20:26.106Z,0.06
2023-02-07T13:23:19.253Z,0.10
2023-02-07T13:26:10.738Z,0.13
2023-02-07T13:28:58.352Z,0.15
2023-02-07T13:32:05.432Z,0.18
2023-02-07T13:34:55.317Z,0.19
2023-02-07T13:38:04.104Z,0.23
2023-02-07T13:41:00.301Z,0.25
2023-02-07T13:44:08.965Z,0.29
2023-02-07T13:47:20.735Z,0.31
2023-02-07T13:50:26.014Z,0.32
2023-02-07T13:53:28.896Z,0.32
2023-02-07T13:56:34.988Z,0.33
2023-02-07T13:59:38.894Z,0.34
2023-02-07T14:02:25.781Z,0.35
2023-02-07T14:05:24.824Z,0.35
2023-02-07T14:08:23.990Z,0.37
2023-02-07T14:12:05.497Z,0.36
2023-02-07T14:15:02.282Z,0.38
2023-02-07T14:18:02.636Z,0.36
2023-02-07T14:20:49.993Z,0.39
2023-02-07T14:24:10.147Z,0.41
2023-02-07T14:27:02.428Z,0.42
2023-02-07T14:30:11.685Z,0.43
2023-02-07T14:33:04.731Z,0.46
2023-02-07T14:36:13.626Z,0.46
2023-02-07T14:39:02.398Z,0.46
2023-02-07T14:41:50.621Z,0.45
2023-02-07T14:44:40.195Z,0.46
2023-02-07T14:47:29.211Z,0.48
2023-02-07T14:50:27.977Z,0.48
2023-02-07T14:53:14.922Z,0.51
2023-02-07T14:56:04.705Z,0.52
2023-02-07T14:58:54.258Z,0.52
2023-02-07T15:01:41.051Z,0.52
2023-02-07T15:04:27.845Z,0.50
2023-02-07T15:07:18.916Z,0.51
2023-02-07T15:10:19.485Z,0.52
2023-02-07T15:13:17.706Z,0.52
2023-02-07T15:16:16.771Z,0.54
2023-02-07T15:19:12.560Z,0.53
2023-02-07T15:21:59.783Z,0.53
2023-02-07T15:24:51.819Z,0.55
2023-02-07T15:27:38.935Z,0.55
2023-02-07T15:30:25.939Z,0.54
2023-02-07T15:33:17.731Z,0.55
2023-02-07T15:36:36.645Z,0.55
2023-02-07T15:39:24.990Z,0.57
2023-02-07T15:42:18.745Z,0.60
2023-02-07T15:45:10.652Z,0.64
2023-02-07T15:48:14.376Z,0.66
2023-02-07T15:51:05.283Z,0.70
2023-02-07T15:53:58.429Z,0.75
2023-02-07T15:56:49.800Z,0.78
2023-02-07T15:59:38.913Z,0.82
2023-02-07T16:02:32.884Z,0.87
2023-02-07T16:05:36.276Z,0.93
2023-02-07T16:08:35.169Z,0.99
2023-02-07T16:11:30.216Z,1.02
2023-02-07T16:14:22.375Z,1.06
2023-02-07T16:17:23.419Z,1.11
2023-02-07T16:20:14.597Z,1.14
2023-02-07T16:23:11.482Z,1.14
2023-02-07T16:26:00.974Z,1.20
2023-02-07T16:28:48.090Z,1.23
2023-02-07T16:31:35.545Z,1.26
2023-02-07T16:34:23.236Z,1.28
2023-02-07T16:37:10.026Z,1.31
2023-02-07T16:39:56.887Z,1.36
2023-02-07T16:42:44.117Z,1.35
2023-02-07T16:45:32.517Z,1.40
2023-02-07T16:48:19.357Z,1.41
2023-02-07T16:51:06.284Z,1.42
2023-02-07T16:53:53.315Z,1.43
2023-02-07T16:56:41.200Z,1.44
2023-02-07T16:59:28.231Z,1.45
2023-02-07T17:02:16.429Z,1.44
2023-02-07T17:05:03.536Z,1.45
2023-02-07T17:07:50.964Z,1.48
2023-02-07T17:10:38.348Z,1.47
2023-02-07T17:13:25.709Z,1.47
2023-02-07T17:16:13.575Z,1.48
2023-02-07T17:19:01.445Z,1.48
2023-02-07T17:21:48.512Z,1.49
2023-02-07T17:24:35.300Z,1.50
2023-02-07T17:27:22.050Z,1.48
2023-02-07T17:30:18.245Z,1.42
2023-02-07T17:33:08.783Z,1.43
2023-02-07T17:35:55.592Z,1.43
2023-02-07T17:38:42.493Z,1.41
2023-02-07T17:41:30.467Z,1.41
2023-02-07T17:44:21.283Z,1.38
2023-02-07T17:47:09.344Z,1.37
2023-02-07T17:49:56.159Z,1.36
2023-02-07T17:52:42.975Z,1.35
2023-02-07T17:55:31.662Z,1.35
2023-02-07T17:58:18.939Z,1.33
2023-02-07T18:01:05.888Z,1.30
2023-02-07T18:03:53.951Z,1.29
2023-02-07T18:06:40.833Z,1.26
2023-02-07T18:09:27.651Z,1.27
2023-02-07T18:12:17.358Z,1.24
2023-02-07T18:15:05.482Z,1.24
2023-02-07T18:17:52.807Z,1.23
2023-02-07T18:20:39.773Z,1.21
2023-02-07T18:23:26.704Z,1.18
2023-02-07T18:26:15.617Z,1.16
2023-02-07T18:29:02.766Z,1.14
2023-02-07T18:31:49.550Z,1.11
2023-02-07T18:34:36.343Z,1.10
2023-02-07T18:37:23.218Z,1.08
2023-02-07T18:40:10.543Z,1.04
2023-02-07T18:42:57.400Z,0.97
2023-02-07T18:45:44.729Z,0.99
2023-02-07T18:48:31.488Z,0.97
2023-02-07T18:51:18.559Z,0.94
2023-02-07T18:54:05.484Z,0.92
2023-02-07T18:56:52.616Z,0.89
2023-02-07T18:59:39.569Z,0.88
2023-02-07T19:02:26.466Z,0.84
2023-02-07T19:05:13.247Z,0.82
2023-02-07T19:08:00.057Z,0.79
2023-02-07T19:10:55.966Z,0.75
2023-02-07T19:13:43.254Z,0.72
2023-02-07T19:16:30.205Z,0.73
2023-02-07T19:19:17.068Z,0.66
2023-02-07T19:22:03.919Z,0.65
2023-02-07T19:24:50.717Z,0.63
2023-02-07T19:27:37.550Z,0.61
2023-02-07T19:30:24.460Z,0.59
2023-02-07T19:33:11.392Z,0.56
2023-02-07T19:36:06.898Z,0.54
2023-02-07T19:38:54.378Z,0.51
2023-02-07T19:41:41.222Z,0.49
2023-02-07T19:44:27.994Z,0.48
2023-02-07T19:47:14.793Z,0.45
2023-02-07T19:50:02.246Z,0.43
2023-02-07T19:52:49.047Z,0.43
2023-02-07T19:55:38.890Z,0.41
2023-02-07T19:58:25.680Z,0.40
2023-02-07T20:01:13.534Z,0.37
2023-02-07T20:04:00.742Z,0.35
2023-02-07T20:06:47.640Z,0.32
2023-02-07T20:09:34.480Z,0.29
2023-02-07T20:12:21.474Z,0.28
2023-02-07T20:15:08.762Z,0.23
2023-02-07T20:17:59.239Z,0.21
2023-02-07T20:20:48.077Z,0.20
2023-02-07T20:23:35.632Z,0.18
2023-02-07T20:26:31.727Z,0.17
2023-02-07T20:29:19.706Z,0.13
2023-02-07T20:32:06.482Z,0.14
2023-02-07T20:34:53.305Z,0.12
2023-02-07T20:37:40.112Z,0.10
2023-02-07T20:40:26.902Z,0.07
2023-02-07T20:43:13.668Z,0.05
2023-02-07T20:46:12.995Z,0.04
2023-02-07T20:49:00.921Z,0.02
2023-02-07T20:51:49.213Z,-0.03
2023-02-07T20:54:36.050Z,-0.05
2023-02-07T20:57:22.870Z,-0.08
2023-02-07T21:00:10.509Z,-0.10
2023-02-07T21:02:57.300Z,-0.13
2023-02-07T21:05:44.091Z,-0.14
2023-02-07T21:08:40.271Z,-0.16
2023-02-07T21:11:28.836Z,-0.18
2023-02-07T21:14:25.442Z,-0.19
2023-02-07T21:17:12.514Z,-0.22
2023-02-07T21:19:59.367Z,-0.23
2023-02-07T21:22:46.152Z,-0.26
2023-02-07T21:25:32.895Z,-0.28
2023-02-07T21:28:19.778Z,-0.29
2023-02-07T21:31:09.883Z,-0.33
2023-02-07T21:33:56.909Z,-0.35
2023-02-07T21:36:44.527Z,-0.36
2023-02-07T21:39:31.295Z,-0.41
2023-02-07T21:42:18.075Z,-0.42
2023-02-07T21:45:05.165Z,-0.44
2023-02-07T21:47:51.966Z,-0.46
2023-02-07T21:50:38.979Z,-0.50
2023-02-07T21:53:25.915Z,-0.51
2023-02-07T21:56:16.444Z,-0.54
2023-02-07T21:59:07.137Z,-0.56
2023-02-07T22:01:54.240Z,-0.58
2023-02-07T22:04:41.089Z,-0.61
2023-02-07T22:07:27.895Z,-0.62
2023-02-07T22:10:14.733Z,-0.64
2023-02-07T22:13:01.553Z,-0.68
2023-02-07T22:15:50.996Z,-0.68
2023-02-07T22:18:40.542Z,-0.69
2023-02-07T22:21:33.051Z,-0.72
2023-02-07T22:24:20.574Z,-0.75
2023-02-07T22:27:13.447Z,-0.78
2023-02-07T22:30:00.228Z,-0.79
2023-02-07T22:32:47.066Z,-0.81
2023-02-07T22:35:37.884Z,-0.84
2023-02-07T22:38:24.689Z,-0.85
2023-02-07T22:41:11.501Z,-0.87
2023-02-07T22:43:58.658Z,-0.91
2023-02-07T22:46:45.502Z,-0.94
2023-02-07T22:49:33.814Z,-0.96
2023-02-07T22:52:20.658Z,-0.99
2023-02-07T22:55:07.645Z,-1.03
2023-02-07T22:57:54.966Z,-1.08
2023-02-07T23:00:42.734Z,-1.09
2023-02-07T23:03:29.569Z,-1.12
2023-02-07T23:06:16.518Z,-1.16
2023-02-07T23:09:05.288Z,-1.18
2023-02-07T23:11:52.162Z,-1.21
2023-02-07T23:14:38.991Z,-1.24
2023-02-07T23:17:27.163Z,-1.27
2023-02-07T23:20:14.060Z,-1.29
2023-02-07T23:23:00.824Z,-1.32
2023-02-07T23:25:47.678Z,-1.35
2023-02-07T23:28:34.699Z,-1.37
2023-02-07T23:31:23.294Z,-1.42
2023-02-07T23:34:10.210Z,-1.46
2023-02-07T23:36:56.997Z,-1.47
2023-02-07T23:39:43.856Z,-1.51
2023-02-07T23:42:30.681Z,-1.53
2023-02-07T23:45:22.741Z,-1.57
2023-02-07T23:48:09.689Z,-1.58
2023-02-07T23:50:58.017Z,-1.59
2023-02-07T23:53:45.346Z,-1.60
2023-02-07T23:56:32.398Z,-1.65
2023-02-07T23:59:19.181Z,-1.66
